South Wilmington, IL (60474)

6:55 PM CST on December 22, 2014 (GMT -0600)
MesoWest MAZNIA IL US UPR | Change Station
CLOSE
Current Station
Personal Weather Station
Location: South Wilmington, IL
Elevation: 577 ft
Nearby Weather Stations
Active Advisory: Special Statement

Elev 577 ft 41.21 °N, 88.28 °W | Updated 3 hours ago

Rain
Rain
37 °F
Feels Like 37 °F
N
Wind Variable Wind from North
Gusts 0.0 mph

Today
High -- | Low -- °F
--% Chance of Precip.
Yesterday
High -- | Low -- °F
Precip. -- in
7:15 AM 4:27 PM
New Moon, 1% visible
Pressure 29.63 in
Visibility 2.5 miles
Clouds Overcast 500 ft
Windchill 37 °F
Dew Point Not available.
Humidity Not available.
Rainfall -999.00 in
Snow Depth Not available.
UV 0 out of 12
Pollen .10 out of 12
Air Quality Not available.
Flu Activity Not available.
METAR KC09 230035Z AUTO 13011KT 2 1/2SM -RA OVC005 06/06 A2963 RMK AO2 T00550055

More Conditions Fewer Conditions

Pressure 29.63 in
Visibility 2.5 miles
Clouds Overcast 500 ft
Windchill 37 °F
Dew Point Not available.
Humidity Not available.
Rainfall -999.00 in
Snow Depth Not available.
UV 0 out of 12
Pollen .10 out of 12
Air Quality Not available.
Flu Activity Not available.
METAR KC09 230035Z AUTO 13011KT 2 1/2SM -RA OVC005 06/06 A2963 RMK AO2 T00550055

More Conditions Fewer Conditions

10-Day Weather Forecast

Almanac

Astronomy

Dec. 22, 2014 Rise Set
Actual Time
Civil Twilight
Nautical Twilight
Astronomical Twilight
Moon
Length of Visible Light
Length of Day
Tomorrow will be .
, % of the Moon is Illuminated

Today's Extremes

State Highs State Lows

Community

WunderPhotos

Upload Photos

1,779,740 photos uploaded!

WunderBlogs® & News

Nearby

Air Quality

  Air Quality AQ Index Pollutant
Not available.

Snow Depth

Station Depth Elevation

Earthquake Activity

City Distance Mag. Time & Date
Minimum magnitude displayed is 2.5.

Coastal Water Temperatures

Place Temperature

Nearby Weather Stations